createdAt,value
2019-02-04T00:00:40.387Z,1001.35
2019-02-04T00:01:40.558Z,1001.41
2019-02-04T00:02:40.740Z,1001.39
2019-02-04T00:03:40.904Z,1001.35
2019-02-04T00:04:41.070Z,1001.37
2019-02-04T00:05:41.244Z,1001.37
2019-02-04T00:06:41.411Z,1001.38
2019-02-04T00:07:41.583Z,1001.33
2019-02-04T00:08:41.760Z,1001.38
2019-02-04T00:09:41.930Z,1001.36
2019-02-04T00:10:42.114Z,1001.38
2019-02-04T00:11:42.268Z,1001.43
2019-02-04T00:12:42.438Z,1001.39
2019-02-04T00:13:42.605Z,1001.43
2019-02-04T00:14:42.770Z,1001.41
2019-02-04T00:15:42.945Z,1001.40
2019-02-04T00:16:43.108Z,1001.40
2019-02-04T00:17:43.275Z,1001.47
2019-02-04T00:18:43.444Z,1001.44
2019-02-04T00:19:43.610Z,1001.46
2019-02-04T00:20:43.787Z,1001.46
2019-02-04T00:21:43.964Z,1001.38
2019-02-04T00:22:44.147Z,1001.41
2019-02-04T00:23:44.296Z,1001.43
2019-02-04T00:24:44.466Z,1001.42
2019-02-04T00:25:44.641Z,1001.44
2019-02-04T00:26:51.279Z,1001.39
2019-02-04T00:27:44.992Z,1001.42
2019-02-04T00:28:45.149Z,1001.43
2019-02-04T00:29:45.334Z,1001.48
2019-02-04T00:30:45.491Z,1001.47
2019-02-04T00:31:45.662Z,1001.48
2019-02-04T00:32:45.831Z,1001.47
2019-02-04T00:33:46.001Z,1001.46
2019-02-04T00:34:46.168Z,1001.49
2019-02-04T00:35:46.351Z,1001.49
2019-02-04T00:36:46.509Z,1001.49
2019-02-04T00:37:46.678Z,1001.50
2019-02-04T00:38:46.855Z,1001.50
2019-02-04T00:39:47.030Z,1001.46
2019-02-04T00:40:47.195Z,1001.45
2019-02-04T00:41:47.366Z,1001.48
2019-02-04T00:42:47.647Z,1001.44
2019-02-04T00:43:47.688Z,1001.48
2019-02-04T00:44:47.867Z,1001.45
2019-02-04T00:45:48.031Z,1001.47
2019-02-04T00:46:52.267Z,1001.47
2019-02-04T00:47:48.374Z,1001.50
2019-02-04T00:48:48.545Z,1001.54
2019-02-04T00:49:48.728Z,1001.53
2019-02-04T00:50:48.892Z,1001.56
2019-02-04T00:51:49.067Z,1001.61
2019-02-04T00:52:49.236Z,1001.57
2019-02-04T00:53:49.398Z,1001.60
2019-02-04T00:54:49.568Z,1001.58
2019-02-04T00:55:49.737Z,1001.62
2019-02-04T00:56:49.906Z,1001.63
2019-02-04T00:57:50.149Z,1001.64
2019-02-04T00:58:50.248Z,1001.66
2019-02-04T00:59:50.421Z,1001.66
2019-02-04T01:00:50.591Z,1001.62
2019-02-04T01:01:50.768Z,1001.62
2019-02-04T01:02:50.936Z,1001.64
2019-02-04T01:03:51.113Z,1001.67
2019-02-04T01:04:51.279Z,1001.69
2019-02-04T01:05:51.621Z,1001.68
2019-02-04T01:06:51.625Z,1001.76
2019-02-04T01:08:51.944Z,1001.71
2019-02-04T01:09:52.150Z,1001.74
2019-02-04T01:10:52.290Z,1001.68
2019-02-04T01:11:52.455Z,1001.69
2019-02-04T01:12:52.627Z,1001.67
2019-02-04T01:13:52.818Z,1001.70
2019-02-04T01:14:52.981Z,1001.67
2019-02-04T01:15:53.179Z,1001.70
2019-02-04T01:17:02.981Z,1001.69
2019-02-04T01:17:53.486Z,1001.70
2019-02-04T01:18:53.654Z,1001.72
2019-02-04T01:19:53.830Z,1001.75
2019-02-04T01:20:54.000Z,1001.70
2019-02-04T01:21:54.167Z,1001.73
2019-02-04T01:22:54.341Z,1001.72
2019-02-04T01:23:54.514Z,1001.73
2019-02-04T01:24:54.691Z,1001.74
2019-02-04T01:25:54.850Z,1001.75
2019-02-04T01:26:55.022Z,1001.75
2019-02-04T01:27:55.187Z,1001.77
2019-02-04T01:28:55.357Z,1001.74
2019-02-04T01:29:55.528Z,1001.75
2019-02-04T01:30:55.698Z,1001.79
2019-02-04T01:31:55.865Z,1001.75
2019-02-04T01:32:56.037Z,1001.79
2019-02-04T01:33:56.210Z,1001.81
2019-02-04T01:34:56.381Z,1001.79
2019-02-04T01:35:56.552Z,1001.81
2019-02-04T01:36:56.723Z,1001.80
2019-02-04T01:37:56.895Z,1001.79
2019-02-04T01:38:57.071Z,1001.83
2019-02-04T01:39:57.237Z,1001.79
2019-02-04T01:40:57.414Z,1001.85
2019-02-04T01:41:57.593Z,1001.89
2019-02-04T01:42:57.745Z,1001.86
2019-02-04T01:43:57.927Z,1001.89
2019-02-04T01:44:58.083Z,1001.85
2019-02-04T01:45:58.250Z,1001.90
2019-02-04T01:46:58.430Z,1001.86
2019-02-04T01:47:58.595Z,1001.82
2019-02-04T01:48:58.764Z,1001.84
2019-02-04T01:49:58.935Z,1001.83
2019-02-04T01:50:59.103Z,1001.84
2019-02-04T01:51:59.276Z,1001.87
2019-02-04T01:52:59.445Z,1001.89
2019-02-04T01:54:00.399Z,1001.87
2019-02-04T01:54:59.749Z,1001.90
2019-02-04T01:55:59.909Z,1001.85
2019-02-04T01:57:00.079Z,1001.89
2019-02-04T01:58:00.258Z,1001.90
2019-02-04T01:59:00.410Z,1001.91
2019-02-04T02:00:00.586Z,1001.89
2019-02-04T02:01:00.755Z,1001.89
2019-02-04T02:02:00.919Z,1001.86
2019-02-04T02:03:01.099Z,1001.90
2019-02-04T02:04:01.267Z,1001.90
2019-02-04T02:05:01.437Z,1001.97
2019-02-04T02:06:01.614Z,1002.05
2019-02-04T02:07:01.776Z,1002.07
2019-02-04T02:08:01.940Z,1002.14
2019-02-04T02:09:02.133Z,1002.13
2019-02-04T02:10:02.285Z,1002.16
2019-02-04T02:11:02.455Z,1002.18
2019-02-04T02:12:02.624Z,1002.16
2019-02-04T02:13:02.785Z,1002.14
2019-02-04T02:14:02.964Z,1002.24
2019-02-04T02:15:03.129Z,1002.23
2019-02-04T02:16:03.293Z,1002.23
2019-02-04T02:17:03.467Z,1002.28
2019-02-04T02:18:03.629Z,1002.19
2019-02-04T02:19:03.798Z,1002.22
2019-02-04T02:20:03.969Z,1002.28
2019-02-04T02:21:04.140Z,1002.30
2019-02-04T02:22:04.305Z,1002.31
2019-02-04T02:23:04.480Z,1002.28
2019-02-04T02:24:04.654Z,1002.27
2019-02-04T02:25:04.820Z,1002.30
2019-02-04T02:26:04.997Z,1002.34
2019-02-04T02:27:05.161Z,1002.38
2019-02-04T02:28:05.325Z,1002.40
2019-02-04T02:29:05.502Z,1002.45
2019-02-04T02:30:05.673Z,1002.45
2019-02-04T02:31:05.841Z,1002.46
2019-02-04T02:32:06.011Z,1002.49
2019-02-04T02:33:06.177Z,1002.49
2019-02-04T02:34:06.351Z,1002.52
2019-02-04T02:35:06.513Z,1002.54
2019-02-04T02:36:06.676Z,1002.55
2019-02-04T02:37:06.849Z,1002.51
2019-02-04T02:38:07.013Z,1002.53
2019-02-04T02:39:07.193Z,1002.52
2019-02-04T02:40:07.374Z,1002.47
2019-02-04T02:41:07.550Z,1002.47
2019-02-04T02:42:07.707Z,1002.44
2019-02-04T02:43:07.879Z,1002.41
2019-02-04T02:44:08.050Z,1002.33
2019-02-04T02:45:08.269Z,1002.33
2019-02-04T02:46:08.387Z,1002.34
2019-02-04T02:47:08.549Z,1002.34
2019-02-04T02:48:08.714Z,1002.29
2019-02-04T02:49:08.886Z,1002.28
2019-02-04T02:50:09.058Z,1002.29
2019-02-04T02:51:09.225Z,1002.27
2019-02-04T02:52:09.394Z,1002.22
2019-02-04T02:53:09.561Z,1002.26
2019-02-04T02:54:09.731Z,1002.23
2019-02-04T02:55:09.897Z,1002.23
2019-02-04T02:56:10.068Z,1002.24
2019-02-04T02:57:10.226Z,1002.24
2019-02-04T02:58:10.400Z,1002.25
2019-02-04T02:59:10.585Z,1002.27
2019-02-04T03:00:10.749Z,1002.35
2019-02-04T03:01:10.917Z,1002.37
2019-02-04T03:02:11.081Z,1002.35
2019-02-04T03:03:11.261Z,1002.39
2019-02-04T03:04:11.424Z,1002.44
2019-02-04T03:05:11.748Z,1002.42
2019-02-04T03:06:11.765Z,1002.50
2019-02-04T03:07:11.952Z,1002.48
2019-02-04T03:08:12.100Z,1002.50
2019-02-04T03:09:12.280Z,1002.50
2019-02-04T03:10:12.453Z,1002.50
2019-02-04T03:11:12.616Z,1002.56
2019-02-04T03:12:12.786Z,1002.56
2019-02-04T03:13:12.970Z,1002.51
2019-02-04T03:14:13.120Z,1002.55
2019-02-04T03:15:13.295Z,1002.54
2019-02-04T03:16:13.465Z,1002.55
2019-02-04T03:17:13.636Z,1002.63
2019-02-04T03:18:13.808Z,1002.64
2019-02-04T03:19:13.981Z,1002.68
2019-02-04T03:20:14.157Z,1002.72
2019-02-04T03:21:14.328Z,1002.71
2019-02-04T03:22:14.495Z,1002.73
2019-02-04T03:23:14.664Z,1002.71
2019-02-04T03:24:14.840Z,1002.69
2019-02-04T03:25:15.019Z,1002.73
2019-02-04T03:26:15.186Z,1002.72
2019-02-04T03:27:15.363Z,1002.69
2019-02-04T03:28:15.559Z,1002.68
2019-02-04T03:29:15.700Z,1002.68
2019-02-04T03:30:15.888Z,1002.69
2019-02-04T03:31:16.037Z,1002.71
2019-02-04T03:32:16.205Z,1002.70
2019-02-04T03:33:16.380Z,1002.71
2019-02-04T03:34:16.544Z,1002.78
2019-02-04T03:35:16.715Z,1002.81
2019-02-04T03:36:16.890Z,1002.85
2019-02-04T03:37:17.053Z,1002.87
2019-02-04T03:38:17.231Z,1002.91
2019-02-04T03:39:17.404Z,1002.88
2019-02-04T03:40:17.572Z,1002.90
2019-02-04T03:41:17.749Z,1002.90
2019-02-04T03:42:17.914Z,1002.91
2019-02-04T03:43:18.077Z,1002.96
2019-02-04T03:44:18.252Z,1002.94
2019-02-04T03:45:18.425Z,1002.95
2019-02-04T03:46:18.599Z,1002.98
2019-02-04T03:47:18.766Z,1002.94
2019-02-04T03:48:18.929Z,1002.95
2019-02-04T03:49:19.100Z,1002.92
2019-02-04T03:50:19.277Z,1002.92
2019-02-04T03:51:19.447Z,1002.90
2019-02-04T03:52:19.620Z,1002.91
2019-02-04T03:53:19.807Z,1002.96
2019-02-04T03:54:19.946Z,1002.91
2019-02-04T03:55:20.121Z,1002.92
2019-02-04T03:56:20.288Z,1002.98
2019-02-04T03:57:20.458Z,1002.94
2019-02-04T03:58:20.640Z,1003.00
2019-02-04T03:59:20.796Z,1002.94
2019-02-04T04:00:20.966Z,1002.97
2019-02-04T04:01:21.162Z,1002.97
2019-02-04T04:02:21.310Z,1002.99
2019-02-04T04:03:21.481Z,1003.04
2019-02-04T04:04:21.653Z,1003.06
2019-02-04T04:05:21.823Z,1003.10
2019-02-04T04:06:21.981Z,1003.06
2019-02-04T04:07:22.174Z,1003.09
2019-02-04T04:08:22.321Z,1003.12
2019-02-04T04:09:22.494Z,1003.19
2019-02-04T04:10:22.660Z,1003.13
2019-02-04T04:11:22.826Z,1003.25
2019-02-04T04:12:22.993Z,1003.24
2019-02-04T04:13:23.165Z,1003.28
2019-02-04T04:14:23.342Z,1003.28
2019-02-04T04:15:23.517Z,1003.23
2019-02-04T04:16:23.680Z,1003.18
2019-02-04T04:17:23.850Z,1003.20
2019-02-04T04:18:24.027Z,1003.22
2019-02-04T04:19:24.189Z,1003.21
2019-02-04T04:20:24.368Z,1003.25
2019-02-04T04:21:24.537Z,1003.22
2019-02-04T04:22:24.701Z,1003.23
2019-02-04T04:23:24.872Z,1003.19
2019-02-04T04:24:25.043Z,1003.22
2019-02-04T04:25:25.213Z,1003.21
2019-02-04T04:26:25.387Z,1003.20
2019-02-04T04:27:25.548Z,1003.28
2019-02-04T04:28:25.723Z,1003.27
2019-02-04T04:29:25.896Z,1003.27
2019-02-04T04:30:26.066Z,1003.25
2019-02-04T04:31:26.235Z,1003.24
2019-02-04T04:32:26.401Z,1003.23
2019-02-04T04:33:26.573Z,1003.22
2019-02-04T04:34:26.756Z,1003.21
2019-02-04T04:35:26.928Z,1003.18
2019-02-04T04:36:27.092Z,1003.16
2019-02-04T04:37:27.252Z,1003.17
2019-02-04T04:38:27.425Z,1003.25
2019-02-04T04:39:27.628Z,1003.29
2019-02-04T04:40:27.772Z,1003.22
2019-02-04T04:41:27.963Z,1003.22
2019-02-04T04:42:28.932Z,1003.20
2019-02-04T04:43:28.286Z,1003.23
2019-02-04T04:44:28.992Z,1003.24
2019-02-04T04:45:28.673Z,1003.22
2019-02-04T04:46:28.842Z,1003.24
2019-02-04T04:47:29.012Z,1003.21
2019-02-04T04:48:29.177Z,1003.25
2019-02-04T04:49:29.349Z,1003.24
2019-02-04T04:50:29.653Z,1003.27
2019-02-04T04:51:29.703Z,1003.36
2019-02-04T04:52:29.894Z,1003.33
2019-02-04T04:53:30.065Z,1003.30
2019-02-04T04:54:30.304Z,1003.25
2019-02-04T04:55:30.413Z,1003.27
2019-02-04T04:56:30.566Z,1003.30
2019-02-04T04:57:30.735Z,1003.31
2019-02-04T04:58:31.006Z,1003.24
2019-02-04T04:59:31.063Z,1003.29
2019-02-04T05:00:31.233Z,1003.27
2019-02-04T05:01:31.414Z,1003.28
2019-02-04T05:02:31.575Z,1003.29
2019-02-04T05:03:31.743Z,1003.29
2019-02-04T05:04:31.916Z,1003.29
2019-02-04T05:05:32.093Z,1003.31
2019-02-04T05:06:32.261Z,1003.28
2019-02-04T05:07:32.429Z,1003.30
2019-02-04T05:08:32.592Z,1003.28
2019-02-04T05:09:32.766Z,1003.31
2019-02-04T05:10:32.938Z,1003.32
2019-02-04T05:11:33.109Z,1003.36
2019-02-04T05:12:33.277Z,1003.32
2019-02-04T05:13:33.451Z,1003.29
2019-02-04T05:14:33.618Z,1003.36
2019-02-04T05:15:33.789Z,1003.34
2019-02-04T05:16:33.958Z,1003.31
2019-02-04T05:17:34.128Z,1003.37
2019-02-04T05:18:38.116Z,1003.37
2019-02-04T05:19:34.471Z,1003.36
2019-02-04T05:20:34.636Z,1003.40
2019-02-04T05:21:34.816Z,1003.34
2019-02-04T05:22:34.985Z,1003.37
2019-02-04T05:23:35.179Z,1003.39
2019-02-04T05:24:35.336Z,1003.37
2019-02-04T05:25:35.487Z,1003.40
2019-02-04T05:26:35.657Z,1003.44
2019-02-04T05:27:35.831Z,1003.44
2019-02-04T05:28:36.001Z,1003.38
2019-02-04T05:29:36.180Z,1003.42
2019-02-04T05:30:36.350Z,1003.39
2019-02-04T05:31:36.604Z,1003.41
2019-02-04T05:32:36.690Z,1003.39
2019-02-04T05:33:36.857Z,1003.38
2019-02-04T05:34:37.050Z,1003.34
2019-02-04T05:35:37.215Z,1003.38
2019-02-04T05:36:37.382Z,1003.40
2019-02-04T05:37:37.549Z,1003.40
2019-02-04T05:38:37.728Z,1003.45
2019-02-04T05:39:37.882Z,1003.43
2019-02-04T05:40:38.070Z,1003.42
2019-02-04T05:41:38.233Z,1003.43
2019-02-04T05:42:38.394Z,1003.46
2019-02-04T05:43:38.564Z,1003.49
2019-02-04T05:44:38.753Z,1003.41
2019-02-04T05:45:38.916Z,1003.45
2019-02-04T05:46:39.111Z,1003.42
2019-02-04T05:47:39.249Z,1003.48
2019-02-04T05:48:48.987Z,1003.48
2019-02-04T05:49:39.595Z,1003.47
2019-02-04T05:50:39.761Z,1003.46
2019-02-04T05:51:39.936Z,1003.44
2019-02-04T05:52:40.115Z,1003.49
2019-02-04T05:53:40.268Z,1003.49
2019-02-04T05:54:40.437Z,1003.50
2019-02-04T05:55:40.610Z,1003.54
2019-02-04T05:56:40.779Z,1003.57
2019-02-04T05:57:40.950Z,1003.55
2019-02-04T05:58:41.121Z,1003.55
2019-02-04T05:59:41.288Z,1003.53
2019-02-04T06:00:41.525Z,1003.55
2019-02-04T06:01:41.623Z,1003.51
2019-02-04T06:02:41.798Z,1003.52
2019-02-04T06:03:41.970Z,1003.53
2019-02-04T06:04:42.140Z,1003.59
2019-02-04T06:05:42.312Z,1003.62
2019-02-04T06:06:42.491Z,1003.59
2019-02-04T06:07:42.657Z,1003.60
2019-02-04T06:08:42.829Z,1003.54
2019-02-04T06:09:42.997Z,1003.56
2019-02-04T06:10:43.168Z,1003.53
2019-02-04T06:11:43.340Z,1003.52
2019-02-04T06:12:43.600Z,1003.55
2019-02-04T06:13:43.677Z,1003.55
2019-02-04T06:14:43.846Z,1003.57
2019-02-04T06:15:44.016Z,1003.59
2019-02-04T06:16:44.181Z,1003.62
2019-02-04T06:17:44.351Z,1003.66
2019-02-04T06:18:44.522Z,1003.64
2019-02-04T06:19:44.702Z,1003.73
2019-02-04T06:20:44.878Z,1003.64
2019-02-04T06:21:45.042Z,1003.59
2019-02-04T06:22:45.214Z,1003.57
2019-02-04T06:23:45.390Z,1003.55
2019-02-04T06:24:45.555Z,1003.58
2019-02-04T06:25:45.778Z,1003.57
2019-02-04T06:26:45.909Z,1003.54
2019-02-04T06:27:46.062Z,1003.52
2019-02-04T06:28:46.228Z,1003.54
2019-02-04T06:29:46.409Z,1003.61
2019-02-04T06:30:46.578Z,1003.60
2019-02-04T06:31:47.504Z,1003.58
2019-02-04T06:32:46.919Z,1003.61
2019-02-04T06:33:47.089Z,1003.65
2019-02-04T06:34:47.275Z,1003.61
2019-02-04T06:35:47.442Z,1003.63
2019-02-04T06:36:47.613Z,1003.70
2019-02-04T06:37:47.781Z,1003.70
2019-02-04T06:38:47.953Z,1003.71
2019-02-04T06:39:48.116Z,1003.65
2019-02-04T06:40:48.290Z,1003.68
2019-02-04T06:41:48.461Z,1003.73
2019-02-04T06:42:48.655Z,1003.75
2019-02-04T06:43:48.820Z,1003.80
2019-02-04T06:44:48.984Z,1003.72
2019-02-04T06:45:49.156Z,1003.73
2019-02-04T06:46:49.325Z,1003.80
2019-02-04T06:47:49.496Z,1003.77
2019-02-04T06:48:49.668Z,1003.78
2019-02-04T06:49:49.850Z,1003.81
2019-02-04T06:50:50.976Z,1003.81
2019-02-04T06:51:50.183Z,1003.86
2019-02-04T06:52:50.351Z,1003.87
2019-02-04T06:53:50.551Z,1003.85
2019-02-04T06:54:50.723Z,1003.84
2019-02-04T06:55:50.897Z,1003.91
2019-02-04T06:56:51.067Z,1003.87
2019-02-04T06:57:51.245Z,1003.91
2019-02-04T06:58:51.414Z,1003.93
2019-02-04T06:59:51.594Z,1003.91
2019-02-04T07:00:51.791Z,1003.97
2019-02-04T07:01:51.915Z,1003.96
2019-02-04T07:02:52.088Z,1004.01
2019-02-04T07:03:52.254Z,1003.98
2019-02-04T07:04:52.426Z,1003.96
2019-02-04T07:05:52.609Z,1003.97
2019-02-04T07:06:52.765Z,1003.96
2019-02-04T07:07:52.946Z,1003.95
2019-02-04T07:08:53.143Z,1003.96
2019-02-04T07:09:53.320Z,1003.98
2019-02-04T07:10:53.491Z,1003.99
2019-02-04T07:11:53.657Z,1003.98
2019-02-04T07:12:53.829Z,1003.96
2019-02-04T07:13:53.992Z,1004.03
2019-02-04T07:14:54.194Z,1003.99
2019-02-04T07:15:54.521Z,1003.95
2019-02-04T07:16:54.514Z,1003.97
2019-02-04T07:17:55.342Z,1003.95
2019-02-04T07:18:55.477Z,1003.96
2019-02-04T07:19:55.040Z,1003.98
2019-02-04T07:20:55.194Z,1003.97
2019-02-04T07:21:55.372Z,1003.96
2019-02-04T07:22:55.547Z,1003.93
2019-02-04T07:23:55.751Z,1003.94
2019-02-04T07:24:55.898Z,1003.96
2019-02-04T07:25:56.063Z,1003.91
2019-02-04T07:26:56.258Z,1003.88
2019-02-04T07:27:56.428Z,1003.96
2019-02-04T07:28:56.610Z,1003.99
2019-02-04T07:29:56.882Z,1003.98
2019-02-04T07:30:57.441Z,1003.97
2019-02-04T07:31:57.125Z,1003.99
2019-02-04T07:32:57.297Z,1004.00
2019-02-04T07:33:57.460Z,1003.99
2019-02-04T07:34:57.680Z,1004.02
2019-02-04T07:35:57.778Z,1004.00
2019-02-04T07:36:57.995Z,1004.03
2019-02-04T07:37:58.152Z,1004.06
2019-02-04T07:38:58.318Z,1004.05
2019-02-04T07:39:58.483Z,1004.11
2019-02-04T07:40:58.672Z,1004.05
2019-02-04T07:42:59.000Z,1004.02
2019-02-04T07:43:59.162Z,1004.03
2019-02-04T07:44:59.437Z,1004.01
2019-02-04T07:45:59.517Z,1004.04
2019-02-04T07:46:59.685Z,1004.01
2019-02-04T07:47:59.852Z,1004.02
2019-02-04T07:49:00.021Z,1004.03
2019-02-04T07:50:00.192Z,1004.01
2019-02-04T07:51:00.358Z,1004.02
2019-02-04T07:52:00.556Z,1004.04
2019-02-04T07:53:00.678Z,1004.02
2019-02-04T07:54:00.863Z,1004.07
2019-02-04T07:55:01.030Z,1004.10
2019-02-04T07:56:01.204Z,1004.06
2019-02-04T07:57:01.373Z,1004.11
2019-02-04T07:58:01.545Z,1004.14
2019-02-04T07:59:01.720Z,1004.08
2019-02-04T08:00:01.915Z,1004.03
2019-02-04T08:01:02.069Z,1004.04
2019-02-04T08:02:02.242Z,1004.03
2019-02-04T08:03:02.435Z,1004.08
2019-02-04T08:04:02.564Z,1004.10
2019-02-04T08:05:02.731Z,1004.10
2019-02-04T08:06:02.902Z,1004.04
2019-02-04T08:07:03.067Z,1004.06
2019-02-04T08:08:03.245Z,1004.08
2019-02-04T08:09:03.437Z,1004.11
2019-02-04T08:10:03.585Z,1004.09
2019-02-04T08:11:03.752Z,1004.11
2019-02-04T08:12:03.939Z,1004.12
2019-02-04T08:13:04.133Z,1004.08
2019-02-04T08:14:04.264Z,1004.06
2019-02-04T08:15:04.434Z,1004.10
2019-02-04T08:16:04.605Z,1004.10
2019-02-04T08:17:04.790Z,1004.10
2019-02-04T08:18:04.959Z,1004.11
2019-02-04T08:19:05.130Z,1004.16
2019-02-04T08:20:05.361Z,1004.17
2019-02-04T08:21:05.478Z,1004.13
2019-02-04T08:22:05.654Z,1004.15
2019-02-04T08:23:05.807Z,1004.18
2019-02-04T08:24:05.973Z,1004.19
2019-02-04T08:25:06.145Z,1004.15
2019-02-04T08:26:06.316Z,1004.18
2019-02-04T08:27:06.484Z,1004.16
2019-02-04T08:28:06.662Z,1004.16
2019-02-04T08:29:06.831Z,1004.20
2019-02-04T08:30:07.004Z,1004.14
2019-02-04T08:31:07.176Z,1004.17
2019-02-04T08:32:07.380Z,1004.20
2019-02-04T08:33:07.530Z,1004.17
2019-02-04T08:34:07.674Z,1004.16
2019-02-04T08:35:07.848Z,1004.13
2019-02-04T08:36:08.029Z,1004.19
2019-02-04T08:37:08.204Z,1004.18
2019-02-04T08:38:08.382Z,1004.12
2019-02-04T08:39:08.552Z,1004.14
2019-02-04T08:40:08.729Z,1004.17
2019-02-04T08:41:08.904Z,1004.19
2019-02-04T08:42:09.074Z,1004.20
2019-02-04T08:43:09.247Z,1004.13
2019-02-04T08:44:09.421Z,1004.16
2019-02-04T08:45:09.608Z,1004.11
2019-02-04T08:46:09.784Z,1004.13
2019-02-04T08:47:09.942Z,1004.15
2019-02-04T08:48:10.114Z,1004.15
2019-02-04T08:49:10.283Z,1004.14
2019-02-04T08:50:10.480Z,1004.15
2019-02-04T08:51:10.629Z,1004.12
2019-02-04T08:52:10.802Z,1004.17
2019-02-04T08:53:10.978Z,1004.17
2019-02-04T08:54:11.150Z,1004.14
2019-02-04T08:55:11.363Z,1004.14
2019-02-04T08:56:11.549Z,1004.11
2019-02-04T08:57:11.759Z,1004.13
2019-02-04T08:58:11.886Z,1004.09
2019-02-04T08:59:12.070Z,1004.13
2019-02-04T09:00:12.235Z,1004.15
2019-02-04T09:01:12.418Z,1004.09
2019-02-04T09:02:12.596Z,1004.15
2019-02-04T09:03:12.770Z,1004.07
2019-02-04T09:04:12.949Z,1004.11
2019-02-04T09:05:13.113Z,1004.09
2019-02-04T09:06:13.294Z,1004.09
2019-02-04T09:07:13.460Z,1004.05
2019-02-04T09:08:13.644Z,1004.06
2019-02-04T09:09:13.814Z,1004.10
2019-02-04T09:10:15.063Z,1004.09
2019-02-04T09:11:14.179Z,1004.05
2019-02-04T09:12:14.347Z,1004.08
2019-02-04T09:13:14.518Z,1004.08
2019-02-04T09:14:14.711Z,1004.08
2019-02-04T09:15:16.347Z,1004.06
2019-02-04T09:16:15.044Z,1004.07
2019-02-04T09:17:15.265Z,1004.00
2019-02-04T09:18:15.414Z,1004.01
2019-02-04T09:21:47.836Z,1004.02
2019-02-04T09:22:48.011Z,1004.00
2019-02-04T09:23:48.184Z,1004.02
2019-02-04T09:24:49.319Z,1004.06
2019-02-04T09:28:20.769Z,1004.03
2019-02-04T09:29:20.956Z,1004.11
2019-02-04T09:30:21.117Z,1004.12
2019-02-04T09:31:21.295Z,1004.09
2019-02-04T09:32:21.464Z,1004.04
2019-02-04T09:33:21.619Z,1004.05
2019-02-04T09:34:21.795Z,1004.06
2019-02-04T09:35:21.969Z,1004.07
2019-02-04T09:36:22.153Z,1004.06
2019-02-04T09:37:22.318Z,1004.11
2019-02-04T09:38:22.498Z,1004.07
2019-02-04T09:39:22.671Z,1004.01
2019-02-04T09:40:22.841Z,1004.07
2019-02-04T09:41:23.089Z,1004.05
2019-02-04T09:42:23.198Z,1004.08
2019-02-04T09:43:23.357Z,1004.04
2019-02-04T09:44:23.533Z,1004.08
2019-02-04T09:45:27.340Z,1004.05
2019-02-04T09:46:23.880Z,1004.00
2019-02-04T09:47:24.050Z,1003.99
2019-02-04T09:48:24.235Z,1003.99
2019-02-04T09:49:24.407Z,1004.02
2019-02-04T09:50:24.584Z,1004.03
2019-02-04T09:51:24.758Z,1004.07
2019-02-04T09:52:24.946Z,1004.04
2019-02-04T09:53:25.121Z,1004.03
2019-02-04T09:54:25.304Z,1004.04
2019-02-04T09:55:25.464Z,1004.00
2019-02-04T09:56:25.645Z,1004.00
2019-02-04T09:57:25.827Z,1003.97
2019-02-04T09:58:25.997Z,1003.98
2019-02-04T09:59:26.197Z,1004.00
2019-02-04T10:00:26.341Z,1004.02
2019-02-04T10:01:26.577Z,1004.02
2019-02-04T10:02:26.751Z,1004.13
2019-02-04T10:03:26.922Z,1004.08
2019-02-04T10:04:27.347Z,1004.08
2019-02-04T10:05:27.195Z,1004.08
2019-02-04T10:06:27.481Z,1004.06
2019-02-04T10:07:27.637Z,1004.06
2019-02-04T10:08:27.695Z,1004.07
2019-02-04T10:09:27.901Z,1004.11
2019-02-04T10:10:28.054Z,1004.10
2019-02-04T10:11:28.225Z,1004.08
2019-02-04T10:12:28.527Z,1004.16
2019-02-04T10:13:28.582Z,1004.09
2019-02-04T10:14:28.747Z,1004.14
2019-02-04T10:15:28.949Z,1004.11
2019-02-04T10:16:29.141Z,1004.14
2019-02-04T10:17:29.306Z,1004.12
2019-02-04T10:18:29.450Z,1004.16
2019-02-04T10:19:29.649Z,1004.13
2019-02-04T10:20:34.070Z,1004.07
2019-02-04T10:21:29.983Z,1004.14
2019-02-04T10:22:30.153Z,1004.10
2019-02-04T10:23:30.349Z,1004.08
2019-02-04T10:24:31.374Z,1004.11
2019-02-04T10:25:30.745Z,1004.13
2019-02-04T10:26:30.916Z,1004.12
2019-02-04T10:27:31.091Z,1004.07
2019-02-04T10:28:31.254Z,1004.08
2019-02-04T10:29:31.517Z,1004.05
2019-02-04T10:30:31.627Z,1004.06
2019-02-04T10:31:31.796Z,1004.07
2019-02-04T10:32:31.991Z,1004.02
2019-02-04T10:33:32.183Z,1003.98
2019-02-04T10:34:32.329Z,1003.93
2019-02-04T10:35:32.511Z,1004.01
2019-02-04T10:36:32.684Z,1003.96
2019-02-04T10:37:32.872Z,1003.96
2019-02-04T10:38:33.031Z,1003.99
2019-02-04T10:39:33.220Z,1003.91
2019-02-04T10:40:33.443Z,1003.91
2019-02-04T10:41:33.583Z,1003.92
2019-02-04T10:42:33.800Z,1003.90
2019-02-04T10:43:33.960Z,1003.92
2019-02-04T10:44:34.161Z,1003.90
2019-02-04T10:45:34.341Z,1003.92
2019-02-04T10:46:34.606Z,1003.88
2019-02-04T10:47:34.640Z,1003.88
2019-02-04T10:48:34.837Z,1003.85
2019-02-04T10:49:35.024Z,1003.86
2019-02-04T10:50:45.584Z,1003.82
2019-02-04T10:51:35.358Z,1003.81
2019-02-04T10:52:35.557Z,1003.79
2019-02-04T10:53:35.732Z,1003.79
2019-02-04T10:54:35.895Z,1003.71
2019-02-04T10:55:36.102Z,1003.77
2019-02-04T10:56:36.245Z,1003.70
2019-02-04T10:57:40.645Z,1003.66
2019-02-04T10:58:36.652Z,1003.66
2019-02-04T10:59:36.778Z,1003.65
2019-02-04T11:00:36.960Z,1003.62
2019-02-04T11:01:37.179Z,1003.55
2019-02-04T11:02:37.332Z,1003.54
2019-02-04T11:03:37.497Z,1003.54
2019-02-04T11:04:37.697Z,1003.50
2019-02-04T11:05:37.837Z,1003.47
2019-02-04T11:06:38.045Z,1003.46
2019-02-04T11:07:38.237Z,1003.40
2019-02-04T11:08:38.431Z,1003.40
2019-02-04T11:09:38.555Z,1003.43
2019-02-04T11:10:38.734Z,1003.42
2019-02-04T11:11:38.923Z,1003.38
2019-02-04T11:12:39.133Z,1003.43
2019-02-04T11:13:39.321Z,1003.39
2019-02-04T11:14:39.459Z,1003.21
2019-02-04T11:15:39.716Z,1003.40
2019-02-04T11:16:39.826Z,1003.35
2019-02-04T11:17:40.016Z,1003.33
2019-02-04T11:18:40.210Z,1003.34
2019-02-04T11:19:40.405Z,1003.33
2019-02-04T11:20:40.587Z,1003.31
2019-02-04T11:21:40.735Z,1003.20
2019-02-04T11:22:40.906Z,1003.26
2019-02-04T11:23:41.088Z,1003.22
2019-02-04T11:24:41.270Z,1003.24
2019-02-04T11:25:41.450Z,1003.21
2019-02-04T11:26:41.673Z,1003.18
2019-02-04T11:27:42.065Z,1003.20
2019-02-04T11:28:42.045Z,1003.13
2019-02-04T11:29:42.178Z,1003.16
2019-02-04T11:30:42.666Z,1003.10
2019-02-04T11:31:42.559Z,1003.09
2019-02-04T11:32:42.911Z,1003.09
2019-02-04T11:33:43.134Z,1003.08
2019-02-04T11:34:43.095Z,1003.07
2019-02-04T11:35:43.433Z,1003.06
2019-02-04T11:36:45.444Z,1003.07
2019-02-04T11:37:43.677Z,1003.06
2019-02-04T11:38:43.842Z,1003.01
2019-02-04T11:39:44.043Z,1003.06
2019-02-04T11:40:45.883Z,1003.03
2019-02-04T11:41:44.475Z,1002.98
2019-02-04T11:42:44.674Z,1002.96
2019-02-04T11:43:44.753Z,1002.93
2019-02-04T11:44:45.044Z,1002.91
2019-02-04T11:48:17.326Z,1002.90
2019-02-04T11:49:17.543Z,1002.95
2019-02-04T11:50:18.292Z,1002.91
2019-02-04T11:51:19.313Z,1002.97
2019-02-04T11:52:17.993Z,1002.97
2019-02-04T11:53:18.166Z,1002.88
2019-02-04T11:54:18.336Z,1002.95
2019-02-04T11:55:18.521Z,1002.93
2019-02-04T11:56:18.695Z,1002.91
2019-02-04T11:57:18.873Z,1002.93
2019-02-04T11:58:19.137Z,1002.90
2019-02-04T11:59:19.251Z,1002.86
2019-02-04T12:00:19.420Z,1002.87
2019-02-04T12:01:19.598Z,1002.89
2019-02-04T12:02:19.905Z,1002.87
2019-02-04T12:03:19.955Z,1002.90
2019-02-04T12:04:20.201Z,1002.87
2019-02-04T12:05:21.279Z,1002.86
2019-02-04T12:06:20.509Z,1002.86
2019-02-04T12:07:20.686Z,1002.79
2019-02-04T12:08:20.872Z,1002.81
2019-02-04T12:09:21.064Z,1002.81
2019-02-04T12:10:21.236Z,1002.75
2019-02-04T12:11:21.530Z,1002.76
2019-02-04T12:12:21.604Z,1002.74
2019-02-04T12:13:21.776Z,1002.77
2019-02-04T12:14:21.955Z,1002.76
2019-02-04T12:15:22.131Z,1002.74
2019-02-04T12:16:22.312Z,1002.75
2019-02-04T12:17:22.469Z,1002.70